Aviation Digital Data Service (ADDS)

Output produced by TAFs form (1346 UTC 09 February 2016)
found at http://aviationweather.gov/adds/tafs/
 
KTUS 091125Z 0912/1012 VRB06KT P6SM SKC 
     FM091600 11012G20KT P6SM SKC 
     FM092100 08009KT P6SM SKC 
     FM100400 14006KT P6SM SKC